sensor_id;sensor_type;location;lat;lon;timestamp;P1;durP1;ratioP1;P2;durP2;ratioP2
7693;SDS011;3889;48.162;11.510;2022-08-11T00:02:27;4.10;;;2.78;;
7693;SDS011;3889;48.162;11.510;2022-08-11T00:05:03;3.08;;;2.75;;
7693;SDS011;3889;48.162;11.510;2022-08-11T00:07:33;3.97;;;2.75;;
7693;SDS011;3889;48.162;11.510;2022-08-11T00:10:09;2.97;;;2.70;;
7693;SDS011;3889;48.162;11.510;2022-08-11T00:12:40;4.38;;;3.10;;
7693;SDS011;3889;48.162;11.510;2022-08-11T00:15:10;4.23;;;2.90;;
7693;SDS011;3889;48.162;11.510;2022-08-11T00:17:39;5.50;;;2.90;;
7693;SDS011;3889;48.162;11.510;2022-08-11T00:20:08;4.65;;;2.80;;
7693;SDS011;3889;48.162;11.510;2022-08-11T00:22:43;2.83;;;2.50;;
7693;SDS011;3889;48.162;11.510;2022-08-11T00:25:14;5.80;;;3.08;;
7693;SDS011;3889;48.162;11.510;2022-08-11T00:27:45;3.55;;;2.90;;
7693;SDS011;3889;48.162;11.510;2022-08-11T00:30:14;4.03;;;2.70;;
7693;SDS011;3889;48.162;11.510;2022-08-11T00:32:43;4.97;;;2.90;;
7693;SDS011;3889;48.162;11.510;2022-08-11T00:35:18;4.18;;;2.90;;
7693;SDS011;3889;48.162;11.510;2022-08-11T00:38:12;6.07;;;2.92;;
7693;SDS011;3889;48.162;11.510;2022-08-11T00:40:41;3.97;;;2.88;;
7693;SDS011;3889;48.162;11.510;2022-08-11T00:43:21;5.33;;;3.13;;
7693;SDS011;3889;48.162;11.510;2022-08-11T00:46:04;3.60;;;3.20;;
7693;SDS011;3889;48.162;11.510;2022-08-11T00:48:39;3.92;;;3.20;;
7693;SDS011;3889;48.162;11.510;2022-08-11T00:51:19;4.75;;;3.15;;
7693;SDS011;3889;48.162;11.510;2022-08-11T00:54:18;4.13;;;3.10;;
7693;SDS011;3889;48.162;11.510;2022-08-11T00:57:17;4.13;;;3.07;;
7693;SDS011;3889;48.162;11.510;2022-08-11T01:00:11;3.90;;;3.08;;
7693;SDS011;3889;48.162;11.510;2022-08-11T01:03:01;5.63;;;3.15;;
7693;SDS011;3889;48.162;11.510;2022-08-11T01:05:49;5.57;;;3.10;;
7693;SDS011;3889;48.162;11.510;2022-08-11T01:08:45;3.15;;;2.85;;
7693;SDS011;3889;48.162;11.510;2022-08-11T01:11:58;4.70;;;3.08;;
7693;SDS011;3889;48.162;11.510;2022-08-11T01:14:51;3.83;;;3.15;;
7693;SDS011;3889;48.162;11.510;2022-08-11T01:18:09;4.53;;;3.08;;
7693;SDS011;3889;48.162;11.510;2022-08-11T01:21:08;3.78;;;3.30;;
7693;SDS011;3889;48.162;11.510;2022-08-11T01:27:35;3.53;;;3.20;;
7693;SDS011;3889;48.162;11.510;2022-08-11T01:30:33;5.22;;;3.17;;
7693;SDS011;3889;48.162;11.510;2022-08-11T01:36:36;5.28;;;3.22;;
7693;SDS011;3889;48.162;11.510;2022-08-11T01:42:36;5.13;;;3.40;;
7693;SDS011;3889;48.162;11.510;2022-08-11T01:45:44;6.25;;;3.75;;
7693;SDS011;3889;48.162;11.510;2022-08-11T01:48:18;4.57;;;3.13;;
7693;SDS011;3889;48.162;11.510;2022-08-11T01:51:04;4.55;;;3.15;;
7693;SDS011;3889;48.162;11.510;2022-08-11T01:53:50;4.45;;;3.10;;
7693;SDS011;3889;48.162;11.510;2022-08-11T01:56:27;5.60;;;3.22;;
7693;SDS011;3889;48.162;11.510;2022-08-11T01:59:04;3.83;;;3.30;;
7693;SDS011;3889;48.162;11.510;2022-08-11T02:01:43;3.53;;;3.22;;
7693;SDS011;3889;48.162;11.510;2022-08-11T02:04:28;3.58;;;3.25;;
7693;SDS011;3889;48.162;11.510;2022-08-11T02:07:02;5.45;;;2.90;;
7693;SDS011;3889;48.162;11.510;2022-08-11T02:09:47;4.35;;;3.42;;
7693;SDS011;3889;48.162;11.510;2022-08-11T02:12:26;6.20;;;3.58;;
7693;SDS011;3889;48.162;11.510;2022-08-11T02:15:19;6.73;;;3.70;;
7693;SDS011;3889;48.162;11.510;2022-08-11T02:17:56;3.90;;;3.10;;
7693;SDS011;3889;48.162;11.510;2022-08-11T02:20:34;4.75;;;3.60;;
7693;SDS011;3889;48.162;11.510;2022-08-11T02:23:26;4.60;;;3.30;;
7693;SDS011;3889;48.162;11.510;2022-08-11T02:26:30;4.07;;;3.50;;
7693;SDS011;3889;48.162;11.510;2022-08-11T02:29:09;4.35;;;3.60;;
7693;SDS011;3889;48.162;11.510;2022-08-11T02:31:49;4.95;;;3.70;;
7693;SDS011;3889;48.162;11.510;2022-08-11T02:34:58;4.40;;;3.60;;
7693;SDS011;3889;48.162;11.510;2022-08-11T02:37:36;5.25;;;3.40;;
7693;SDS011;3889;48.162;11.510;2022-08-11T02:40:26;5.00;;;4.07;;
7693;SDS011;3889;48.162;11.510;2022-08-11T02:43:06;4.73;;;3.50;;
7693;SDS011;3889;48.162;11.510;2022-08-11T02:45:53;5.03;;;3.72;;
7693;SDS011;3889;48.162;11.510;2022-08-11T02:51:36;5.20;;;3.83;;
7693;SDS011;3889;48.162;11.510;2022-08-11T02:54:10;4.20;;;3.80;;
7693;SDS011;3889;48.162;11.510;2022-08-11T02:56:49;5.22;;;4.18;;
7693;SDS011;3889;48.162;11.510;2022-08-11T02:59:30;5.82;;;4.22;;
7693;SDS011;3889;48.162;11.510;2022-08-11T03:02:23;5.97;;;4.00;;
7693;SDS011;3889;48.162;11.510;2022-08-11T03:05:11;4.68;;;4.28;;
7693;SDS011;3889;48.162;11.510;2022-08-11T03:07:50;4.45;;;3.70;;
7693;SDS011;3889;48.162;11.510;2022-08-11T03:10:35;5.70;;;3.90;;
7693;SDS011;3889;48.162;11.510;2022-08-11T03:13:33;4.50;;;3.80;;
7693;SDS011;3889;48.162;11.510;2022-08-11T03:16:26;6.43;;;4.05;;
7693;SDS011;3889;48.162;11.510;2022-08-11T03:19:17;4.47;;;3.63;;
7693;SDS011;3889;48.162;11.510;2022-08-11T03:21:55;4.40;;;4.00;;
7693;SDS011;3889;48.162;11.510;2022-08-11T03:24:34;4.65;;;3.92;;
7693;SDS011;3889;48.162;11.510;2022-08-11T03:30:13;5.18;;;3.92;;
7693;SDS011;3889;48.162;11.510;2022-08-11T03:36:12;4.70;;;4.00;;
7693;SDS011;3889;48.162;11.510;2022-08-11T03:38:53;5.78;;;4.10;;
7693;SDS011;3889;48.162;11.510;2022-08-11T03:41:33;5.15;;;4.47;;
7693;SDS011;3889;48.162;11.510;2022-08-11T03:44:36;4.78;;;3.95;;
7693;SDS011;3889;48.162;11.510;2022-08-11T03:47:17;4.90;;;4.40;;
7693;SDS011;3889;48.162;11.510;2022-08-11T03:50:02;4.95;;;4.20;;
7693;SDS011;3889;48.162;11.510;2022-08-11T03:52:50;4.97;;;4.15;;
7693;SDS011;3889;48.162;11.510;2022-08-11T03:55:39;5.70;;;4.50;;
7693;SDS011;3889;48.162;11.510;2022-08-11T03:58:35;4.97;;;4.47;;
7693;SDS011;3889;48.162;11.510;2022-08-11T04:01:56;6.25;;;4.22;;
7693;SDS011;3889;48.162;11.510;2022-08-11T04:04:53;4.75;;;4.13;;
7693;SDS011;3889;48.162;11.510;2022-08-11T04:07:55;4.90;;;4.18;;
7693;SDS011;3889;48.162;11.510;2022-08-11T04:10:55;7.72;;;4.60;;
7693;SDS011;3889;48.162;11.510;2022-08-11T04:23:41;5.13;;;4.32;;
7693;SDS011;3889;48.162;11.510;2022-08-11T04:26:55;5.25;;;4.57;;
7693;SDS011;3889;48.162;11.510;2022-08-11T04:29:51;5.32;;;4.80;;
7693;SDS011;3889;48.162;11.510;2022-08-11T04:32:41;4.90;;;4.40;;
7693;SDS011;3889;48.162;11.510;2022-08-11T04:35:46;6.10;;;4.85;;
7693;SDS011;3889;48.162;11.510;2022-08-11T04:38:33;5.37;;;4.30;;
7693;SDS011;3889;48.162;11.510;2022-08-11T04:44:50;5.10;;;4.30;;
7693;SDS011;3889;48.162;11.510;2022-08-11T04:47:50;5.28;;;4.55;;
7693;SDS011;3889;48.162;11.510;2022-08-11T04:50:59;5.28;;;4.50;;
7693;SDS011;3889;48.162;11.510;2022-08-11T04:53:55;6.72;;;4.60;;
7693;SDS011;3889;48.162;11.510;2022-08-11T04:56:54;5.50;;;4.63;;
7693;SDS011;3889;48.162;11.510;2022-08-11T04:59:58;6.63;;;5.07;;
7693;SDS011;3889;48.162;11.510;2022-08-11T05:03:02;5.32;;;4.50;;
7693;SDS011;3889;48.162;11.510;2022-08-11T05:06:12;5.00;;;4.50;;
7693;SDS011;3889;48.162;11.510;2022-08-11T05:09:15;5.35;;;4.80;;
7693;SDS011;3889;48.162;11.510;2022-08-11T05:12:01;5.82;;;4.97;;
7693;SDS011;3889;48.162;11.510;2022-08-11T05:14:55;5.47;;;4.73;;
7693;SDS011;3889;48.162;11.510;2022-08-11T05:17:43;6.75;;;5.03;;
7693;SDS011;3889;48.162;11.510;2022-08-11T05:20:39;6.13;;;5.00;;
7693;SDS011;3889;48.162;11.510;2022-08-11T05:23:33;5.43;;;4.60;;
7693;SDS011;3889;48.162;11.510;2022-08-11T05:26:25;7.07;;;4.80;;
7693;SDS011;3889;48.162;11.510;2022-08-11T05:29:25;6.53;;;4.82;;
7693;SDS011;3889;48.162;11.510;2022-08-11T05:32:19;6.53;;;4.70;;
7693;SDS011;3889;48.162;11.510;2022-08-11T05:35:05;5.60;;;4.82;;
7693;SDS011;3889;48.162;11.510;2022-08-11T05:37:37;9.18;;;4.70;;
7693;SDS011;3889;48.162;11.510;2022-08-11T05:40:23;5.90;;;4.47;;
7693;SDS011;3889;48.162;11.510;2022-08-11T05:43:19;7.03;;;4.55;;
7693;SDS011;3889;48.162;11.510;2022-08-11T05:46:27;5.97;;;4.03;;
7693;SDS011;3889;48.162;11.510;2022-08-11T05:49:13;7.45;;;4.50;;
7693;SDS011;3889;48.162;11.510;2022-08-11T05:51:59;7.60;;;4.35;;
7693;SDS011;3889;48.162;11.510;2022-08-11T05:54:59;5.65;;;4.57;;
7693;SDS011;3889;48.162;11.510;2022-08-11T05:57:47;5.75;;;4.68;;
7693;SDS011;3889;48.162;11.510;2022-08-11T06:00:18;5.75;;;4.35;;
7693;SDS011;3889;48.162;11.510;2022-08-11T06:02:50;6.93;;;4.32;;
7693;SDS011;3889;48.162;11.510;2022-08-11T06:05:20;8.68;;;4.40;;
7693;SDS011;3889;48.162;11.510;2022-08-11T06:07:51;7.40;;;4.55;;
7693;SDS011;3889;48.162;11.510;2022-08-11T06:10:26;6.00;;;4.53;;
7693;SDS011;3889;48.162;11.510;2022-08-11T06:12:58;6.32;;;4.32;;
7693;SDS011;3889;48.162;11.510;2022-08-11T06:15:28;5.45;;;4.63;;
7693;SDS011;3889;48.162;11.510;2022-08-11T06:17:59;5.60;;;4.53;;
7693;SDS011;3889;48.162;11.510;2022-08-11T06:20:29;7.78;;;4.88;;
7693;SDS011;3889;48.162;11.510;2022-08-11T06:23:03;7.90;;;4.67;;
7693;SDS011;3889;48.162;11.510;2022-08-11T06:25:34;6.70;;;4.50;;
7693;SDS011;3889;48.162;11.510;2022-08-11T06:28:04;5.72;;;4.20;;
7693;SDS011;3889;48.162;11.510;2022-08-11T06:30:36;6.40;;;4.38;;
7693;SDS011;3889;48.162;11.510;2022-08-11T06:33:07;6.15;;;4.53;;
7693;SDS011;3889;48.162;11.510;2022-08-11T06:35:47;5.13;;;4.47;;
7693;SDS011;3889;48.162;11.510;2022-08-11T06:38:26;5.82;;;4.45;;
7693;SDS011;3889;48.162;11.510;2022-08-11T06:41:17;6.07;;;4.25;;
7693;SDS011;3889;48.162;11.510;2022-08-11T06:43:59;7.18;;;4.60;;
7693;SDS011;3889;48.162;11.510;2022-08-11T06:46:37;7.43;;;4.70;;
7693;SDS011;3889;48.162;11.510;2022-08-11T06:49:08;5.68;;;4.53;;
7693;SDS011;3889;48.162;11.510;2022-08-11T06:51:51;6.85;;;5.05;;
7693;SDS011;3889;48.162;11.510;2022-08-11T06:54:27;5.55;;;4.10;;
7693;SDS011;3889;48.162;11.510;2022-08-11T06:56:57;7.15;;;4.60;;
7693;SDS011;3889;48.162;11.510;2022-08-11T06:59:58;6.53;;;4.55;;
7693;SDS011;3889;48.162;11.510;2022-08-11T07:02:57;8.00;;;4.63;;
7693;SDS011;3889;48.162;11.510;2022-08-11T07:05:36;9.02;;;4.65;;
7693;SDS011;3889;48.162;11.510;2022-08-11T07:14:50;7.47;;;4.57;;
7693;SDS011;3889;48.162;11.510;2022-08-11T07:17:39;6.23;;;4.20;;
7693;SDS011;3889;48.162;11.510;2022-08-11T07:20:16;6.13;;;4.28;;
7693;SDS011;3889;48.162;11.510;2022-08-11T07:23:02;5.32;;;4.55;;
7693;SDS011;3889;48.162;11.510;2022-08-11T07:25:51;5.88;;;4.28;;
7693;SDS011;3889;48.162;11.510;2022-08-11T07:28:38;7.88;;;4.35;;
7693;SDS011;3889;48.162;11.510;2022-08-11T07:31:25;6.93;;;3.87;;
7693;SDS011;3889;48.162;11.510;2022-08-11T07:34:00;6.38;;;4.18;;
7693;SDS011;3889;48.162;11.510;2022-08-11T07:36:46;4.28;;;3.78;;
7693;SDS011;3889;48.162;11.510;2022-08-11T07:39:18;6.85;;;4.00;;
7693;SDS011;3889;48.162;11.510;2022-08-11T07:41:48;5.32;;;4.00;;
7693;SDS011;3889;48.162;11.510;2022-08-11T07:44:17;5.50;;;3.75;;
7693;SDS011;3889;48.162;11.510;2022-08-11T07:46:47;6.22;;;3.70;;
7693;SDS011;3889;48.162;11.510;2022-08-11T07:49:34;5.90;;;3.90;;
7693;SDS011;3889;48.162;11.510;2022-08-11T07:52:23;8.02;;;3.80;;
7693;SDS011;3889;48.162;11.510;2022-08-11T07:55:00;8.57;;;4.20;;
7693;SDS011;3889;48.162;11.510;2022-08-11T07:57:30;5.65;;;3.70;;
7693;SDS011;3889;48.162;11.510;2022-08-11T08:00:36;6.60;;;4.07;;
7693;SDS011;3889;48.162;11.510;2022-08-11T08:03:26;6.13;;;3.80;;
7693;SDS011;3889;48.162;11.510;2022-08-11T08:06:20;4.70;;;3.63;;
7693;SDS011;3889;48.162;11.510;2022-08-11T08:09:08;4.60;;;3.90;;
7693;SDS011;3889;48.162;11.510;2022-08-11T08:11:54;4.93;;;3.80;;
7693;SDS011;3889;48.162;11.510;2022-08-11T08:14:40;5.93;;;4.10;;
7693;SDS011;3889;48.162;11.510;2022-08-11T08:17:26;5.28;;;3.95;;
7693;SDS011;3889;48.162;11.510;2022-08-11T08:20:34;4.97;;;3.60;;
7693;SDS011;3889;48.162;11.510;2022-08-11T08:23:04;4.88;;;3.80;;
7693;SDS011;3889;48.162;11.510;2022-08-11T08:25:34;4.72;;;3.80;;
7693;SDS011;3889;48.162;11.510;2022-08-11T08:28:04;4.80;;;3.90;;
7693;SDS011;3889;48.162;11.510;2022-08-11T08:30:35;5.75;;;3.70;;
7693;SDS011;3889;48.162;11.510;2022-08-11T08:33:12;5.72;;;3.50;;
7693;SDS011;3889;48.162;11.510;2022-08-11T08:35:43;5.70;;;3.58;;
7693;SDS011;3889;48.162;11.510;2022-08-11T08:38:20;4.53;;;3.35;;
7693;SDS011;3889;48.162;11.510;2022-08-11T08:40:50;4.93;;;3.22;;
7693;SDS011;3889;48.162;11.510;2022-08-11T08:43:21;5.90;;;3.80;;
7693;SDS011;3889;48.162;11.510;2022-08-11T08:45:51;6.80;;;3.88;;
7693;SDS011;3889;48.162;11.510;2022-08-11T08:48:22;5.85;;;3.78;;
7693;SDS011;3889;48.162;11.510;2022-08-11T08:50:55;5.65;;;3.80;;
7693;SDS011;3889;48.162;11.510;2022-08-11T08:53:47;4.45;;;3.60;;
7693;SDS011;3889;48.162;11.510;2022-08-11T08:56:26;4.57;;;3.60;;
7693;SDS011;3889;48.162;11.510;2022-08-11T08:58:55;5.50;;;3.58;;
7693;SDS011;3889;48.162;11.510;2022-08-11T09:01:26;4.22;;;3.53;;
7693;SDS011;3889;48.162;11.510;2022-08-11T09:03:56;4.20;;;3.60;;
7693;SDS011;3889;48.162;11.510;2022-08-11T09:06:32;5.10;;;3.53;;
7693;SDS011;3889;48.162;11.510;2022-08-11T09:09:05;5.38;;;3.55;;
7693;SDS011;3889;48.162;11.510;2022-08-11T09:11:35;5.80;;;3.33;;
7693;SDS011;3889;48.162;11.510;2022-08-11T09:14:19;7.18;;;3.63;;
7693;SDS011;3889;48.162;11.510;2022-08-11T09:16:48;5.68;;;3.70;;
7693;SDS011;3889;48.162;11.510;2022-08-11T09:19:19;4.82;;;3.38;;
7693;SDS011;3889;48.162;11.510;2022-08-11T09:21:48;6.55;;;3.50;;
7693;SDS011;3889;48.162;11.510;2022-08-11T09:24:38;4.57;;;3.50;;
7693;SDS011;3889;48.162;11.510;2022-08-11T09:27:26;7.43;;;3.70;;
7693;SDS011;3889;48.162;11.510;2022-08-11T09:29:54;6.93;;;3.60;;
7693;SDS011;3889;48.162;11.510;2022-08-11T09:32:23;5.60;;;3.50;;
7693;SDS011;3889;48.162;11.510;2022-08-11T09:34:51;4.97;;;3.35;;
7693;SDS011;3889;48.162;11.510;2022-08-11T09:37:20;6.00;;;3.40;;
7693;SDS011;3889;48.162;11.510;2022-08-11T09:40:21;4.90;;;3.42;;
7693;SDS011;3889;48.162;11.510;2022-08-11T09:43:00;4.50;;;3.20;;
7693;SDS011;3889;48.162;11.510;2022-08-11T09:45:50;6.17;;;3.70;;
7693;SDS011;3889;48.162;11.510;2022-08-11T09:48:19;5.82;;;3.45;;
7693;SDS011;3889;48.162;11.510;2022-08-11T09:50:49;5.60;;;3.23;;
7693;SDS011;3889;48.162;11.510;2022-08-11T09:53:18;3.87;;;3.00;;
7693;SDS011;3889;48.162;11.510;2022-08-11T09:56:06;5.15;;;3.03;;
7693;SDS011;3889;48.162;11.510;2022-08-11T09:58:57;4.00;;;3.00;;
7693;SDS011;3889;48.162;11.510;2022-08-11T10:01:27;4.22;;;2.92;;
7693;SDS011;3889;48.162;11.510;2022-08-11T10:03:59;7.43;;;3.05;;
7693;SDS011;3889;48.162;11.510;2022-08-11T10:06:30;4.35;;;2.90;;
7693;SDS011;3889;48.162;11.510;2022-08-11T10:09:33;4.32;;;2.92;;
7693;SDS011;3889;48.162;11.510;2022-08-11T10:12:05;4.10;;;2.63;;
7693;SDS011;3889;48.162;11.510;2022-08-11T10:14:40;5.03;;;2.90;;
7693;SDS011;3889;48.162;11.510;2022-08-11T10:17:29;4.07;;;2.90;;
7693;SDS011;3889;48.162;11.510;2022-08-11T10:20:00;5.13;;;2.85;;
7693;SDS011;3889;48.162;11.510;2022-08-11T10:22:31;4.05;;;2.90;;
7693;SDS011;3889;48.162;11.510;2022-08-11T10:25:18;5.32;;;2.50;;
7693;SDS011;3889;48.162;11.510;2022-08-11T10:28:19;4.75;;;2.55;;
7693;SDS011;3889;48.162;11.510;2022-08-11T10:31:07;4.40;;;2.65;;
7693;SDS011;3889;48.162;11.510;2022-08-11T10:34:12;3.90;;;3.03;;
7693;SDS011;3889;48.162;11.510;2022-08-11T10:36:44;3.05;;;2.63;;
7693;SDS011;3889;48.162;11.510;2022-08-11T10:39:13;4.15;;;2.63;;
7693;SDS011;3889;48.162;11.510;2022-08-11T10:41:44;5.38;;;2.45;;
7693;SDS011;3889;48.162;11.510;2022-08-11T10:44:40;4.35;;;2.70;;
7693;SDS011;3889;48.162;11.510;2022-08-11T10:47:12;4.05;;;2.50;;
7693;SDS011;3889;48.162;11.510;2022-08-11T10:50:02;3.88;;;2.50;;
7693;SDS011;3889;48.162;11.510;2022-08-11T10:52:52;5.63;;;2.50;;
7693;SDS011;3889;48.162;11.510;2022-08-11T10:55:38;3.17;;;2.40;;
7693;SDS011;3889;48.162;11.510;2022-08-11T10:58:27;3.88;;;2.70;;
7693;SDS011;3889;48.162;11.510;2022-08-11T11:01:15;4.07;;;2.83;;
7693;SDS011;3889;48.162;11.510;2022-08-11T11:03:50;4.60;;;2.50;;
7693;SDS011;3889;48.162;11.510;2022-08-11T11:06:22;5.07;;;2.60;;
7693;SDS011;3889;48.162;11.510;2022-08-11T11:08:56;5.75;;;2.65;;
7693;SDS011;3889;48.162;11.510;2022-08-11T11:11:31;3.00;;;2.38;;
7693;SDS011;3889;48.162;11.510;2022-08-11T11:14:21;2.90;;;2.53;;
7693;SDS011;3889;48.162;11.510;2022-08-11T11:17:12;3.70;;;2.50;;
7693;SDS011;3889;48.162;11.510;2022-08-11T11:20:00;4.03;;;2.65;;
7693;SDS011;3889;48.162;11.510;2022-08-11T11:22:32;4.67;;;2.80;;
7693;SDS011;3889;48.162;11.510;2022-08-11T11:25:07;6.47;;;2.63;;
7693;SDS011;3889;48.162;11.510;2022-08-11T11:27:54;5.53;;;2.55;;
7693;SDS011;3889;48.162;11.510;2022-08-11T11:30:31;3.95;;;2.38;;
7693;SDS011;3889;48.162;11.510;2022-08-11T11:33:07;6.15;;;2.75;;
7693;SDS011;3889;48.162;11.510;2022-08-11T11:35:43;4.72;;;2.47;;
7693;SDS011;3889;48.162;11.510;2022-08-11T11:38:19;5.70;;;2.40;;
7693;SDS011;3889;48.162;11.510;2022-08-11T11:40:47;7.97;;;2.42;;
7693;SDS011;3889;48.162;11.510;2022-08-11T11:43:36;3.37;;;2.50;;
7693;SDS011;3889;48.162;11.510;2022-08-11T11:46:04;4.22;;;2.72;;
7693;SDS011;3889;48.162;11.510;2022-08-11T11:48:35;3.78;;;2.40;;
7693;SDS011;3889;48.162;11.510;2022-08-11T11:51:06;2.78;;;2.30;;
7693;SDS011;3889;48.162;11.510;2022-08-11T11:53:35;4.05;;;2.78;;
7693;SDS011;3889;48.162;11.510;2022-08-11T11:56:03;4.97;;;2.33;;
7693;SDS011;3889;48.162;11.510;2022-08-11T11:58:31;2.95;;;2.33;;
7693;SDS011;3889;48.162;11.510;2022-08-11T12:01:17;3.13;;;2.30;;
7693;SDS011;3889;48.162;11.510;2022-08-11T12:03:50;3.08;;;2.22;;
7693;SDS011;3889;48.162;11.510;2022-08-11T12:06:21;5.57;;;2.58;;
7693;SDS011;3889;48.162;11.510;2022-08-11T12:08:51;4.53;;;2.70;;
7693;SDS011;3889;48.162;11.510;2022-08-11T12:11:21;4.57;;;2.88;;
7693;SDS011;3889;48.162;11.510;2022-08-11T12:14:09;5.47;;;2.63;;
7693;SDS011;3889;48.162;11.510;2022-08-11T12:16:39;4.75;;;2.70;;
7693;SDS011;3889;48.162;11.510;2022-08-11T12:19:10;3.83;;;2.42;;
7693;SDS011;3889;48.162;11.510;2022-08-11T12:21:41;3.75;;;2.38;;
7693;SDS011;3889;48.162;11.510;2022-08-11T12:24:26;2.60;;;2.33;;
7693;SDS011;3889;48.162;11.510;2022-08-11T12:27:13;6.53;;;2.92;;
7693;SDS011;3889;48.162;11.510;2022-08-11T12:29:51;3.53;;;2.25;;
7693;SDS011;3889;48.162;11.510;2022-08-11T12:32:22;3.42;;;2.17;;
7693;SDS011;3889;48.162;11.510;2022-08-11T12:34:52;2.72;;;2.25;;
7693;SDS011;3889;48.162;11.510;2022-08-11T12:37:25;5.07;;;2.37;;
7693;SDS011;3889;48.162;11.510;2022-08-11T12:39:57;3.27;;;2.33;;
7693;SDS011;3889;48.162;11.510;2022-08-11T12:43:06;5.18;;;2.00;;
7693;SDS011;3889;48.162;11.510;2022-08-11T12:46:05;3.60;;;2.30;;
7693;SDS011;3889;48.162;11.510;2022-08-11T12:48:35;3.50;;;2.30;;
7693;SDS011;3889;48.162;11.510;2022-08-11T12:51:29;4.60;;;2.20;;
7693;SDS011;3889;48.162;11.510;2022-08-11T12:54:43;4.00;;;2.38;;
7693;SDS011;3889;48.162;11.510;2022-08-11T12:57:17;5.38;;;2.40;;
7693;SDS011;3889;48.162;11.510;2022-08-11T13:00:10;3.60;;;2.40;;
7693;SDS011;3889;48.162;11.510;2022-08-11T13:02:57;4.20;;;2.27;;
7693;SDS011;3889;48.162;11.510;2022-08-11T13:05:45;4.00;;;2.30;;
7693;SDS011;3889;48.162;11.510;2022-08-11T13:08:15;2.85;;;2.00;;
7693;SDS011;3889;48.162;11.510;2022-08-11T13:10:45;2.58;;;2.00;;
7693;SDS011;3889;48.162;11.510;2022-08-11T13:13:33;3.75;;;2.30;;
7693;SDS011;3889;48.162;11.510;2022-08-11T13:16:22;3.20;;;2.20;;
7693;SDS011;3889;48.162;11.510;2022-08-11T13:18:52;4.95;;;2.25;;
7693;SDS011;3889;48.162;11.510;2022-08-11T13:21:20;2.90;;;2.10;;
7693;SDS011;3889;48.162;11.510;2022-08-11T13:23:49;4.93;;;1.98;;
7693;SDS011;3889;48.162;11.510;2022-08-11T13:26:33;3.45;;;2.35;;
7693;SDS011;3889;48.162;11.510;2022-08-11T13:29:18;3.58;;;2.08;;
7693;SDS011;3889;48.162;11.510;2022-08-11T13:31:47;3.03;;;2.30;;
7693;SDS011;3889;48.162;11.510;2022-08-11T13:34:17;3.42;;;2.10;;
7693;SDS011;3889;48.162;11.510;2022-08-11T13:36:48;3.00;;;2.40;;
7693;SDS011;3889;48.162;11.510;2022-08-11T13:39:18;5.53;;;2.08;;
7693;SDS011;3889;48.162;11.510;2022-08-11T13:41:51;2.92;;;2.10;;
7693;SDS011;3889;48.162;11.510;2022-08-11T13:44:21;2.70;;;2.08;;
7693;SDS011;3889;48.162;11.510;2022-08-11T13:46:53;3.83;;;1.98;;
7693;SDS011;3889;48.162;11.510;2022-08-11T13:49:24;3.45;;;2.03;;
7693;SDS011;3889;48.162;11.510;2022-08-11T13:51:53;4.05;;;2.05;;
7693;SDS011;3889;48.162;11.510;2022-08-11T13:54:22;4.93;;;2.13;;
7693;SDS011;3889;48.162;11.510;2022-08-11T13:56:54;2.97;;;2.20;;
7693;SDS011;3889;48.162;11.510;2022-08-11T13:59:26;3.08;;;2.03;;
7693;SDS011;3889;48.162;11.510;2022-08-11T14:01:57;4.18;;;1.95;;
7693;SDS011;3889;48.162;11.510;2022-08-11T14:04:50;3.22;;;2.00;;
7693;SDS011;3889;48.162;11.510;2022-08-11T14:07:21;4.72;;;1.90;;
7693;SDS011;3889;48.162;11.510;2022-08-11T14:09:52;2.13;;;1.90;;
7693;SDS011;3889;48.162;11.510;2022-08-11T14:12:26;2.67;;;2.08;;
7693;SDS011;3889;48.162;11.510;2022-08-11T14:15:16;4.57;;;1.90;;
7693;SDS011;3889;48.162;11.510;2022-08-11T14:17:51;2.72;;;1.90;;
7693;SDS011;3889;48.162;11.510;2022-08-11T14:20:22;3.15;;;2.00;;
7693;SDS011;3889;48.162;11.510;2022-08-11T14:23:10;2.13;;;1.90;;
7693;SDS011;3889;48.162;11.510;2022-08-11T14:25:40;3.88;;;2.10;;
7693;SDS011;3889;48.162;11.510;2022-08-11T14:28:30;2.90;;;2.20;;
7693;SDS011;3889;48.162;11.510;2022-08-11T14:31:09;4.47;;;2.00;;
7693;SDS011;3889;48.162;11.510;2022-08-11T14:33:38;5.10;;;2.33;;
7693;SDS011;3889;48.162;11.510;2022-08-11T14:36:27;2.83;;;2.05;;
7693;SDS011;3889;48.162;11.510;2022-08-11T14:38:57;4.53;;;2.20;;
7693;SDS011;3889;48.162;11.510;2022-08-11T14:41:27;3.22;;;2.30;;
7693;SDS011;3889;48.162;11.510;2022-08-11T14:44:35;5.00;;;1.90;;
7693;SDS011;3889;48.162;11.510;2022-08-11T14:47:21;3.03;;;2.00;;
7693;SDS011;3889;48.162;11.510;2022-08-11T14:49:52;3.00;;;1.92;;
7693;SDS011;3889;48.162;11.510;2022-08-11T14:52:35;2.85;;;2.30;;
7693;SDS011;3889;48.162;11.510;2022-08-11T14:55:04;4.03;;;2.10;;
7693;SDS011;3889;48.162;11.510;2022-08-11T14:57:51;2.92;;;2.08;;
7693;SDS011;3889;48.162;11.510;2022-08-11T15:00:23;4.20;;;2.22;;
7693;SDS011;3889;48.162;11.510;2022-08-11T15:02:52;3.35;;;2.00;;
7693;SDS011;3889;48.162;11.510;2022-08-11T15:05:44;2.53;;;1.90;;
7693;SDS011;3889;48.162;11.510;2022-08-11T15:08:23;3.15;;;1.88;;
7693;SDS011;3889;48.162;11.510;2022-08-11T15:11:14;5.13;;;2.13;;
7693;SDS011;3889;48.162;11.510;2022-08-11T15:14:01;2.50;;;1.83;;
7693;SDS011;3889;48.162;11.510;2022-08-11T15:16:32;3.90;;;2.10;;
7693;SDS011;3889;48.162;11.510;2022-08-11T15:19:19;3.17;;;1.93;;
7693;SDS011;3889;48.162;11.510;2022-08-11T15:21:48;2.92;;;1.90;;
7693;SDS011;3889;48.162;11.510;2022-08-11T15:24:34;2.85;;;2.33;;
7693;SDS011;3889;48.162;11.510;2022-08-11T15:27:03;4.93;;;2.20;;
7693;SDS011;3889;48.162;11.510;2022-08-11T15:29:53;5.22;;;1.98;;
7693;SDS011;3889;48.162;11.510;2022-08-11T15:32:59;2.37;;;1.90;;
7693;SDS011;3889;48.162;11.510;2022-08-11T15:35:50;5.28;;;1.90;;
7693;SDS011;3889;48.162;11.510;2022-08-11T15:38:38;2.60;;;2.03;;
7693;SDS011;3889;48.162;11.510;2022-08-11T15:41:09;2.75;;;1.70;;
7693;SDS011;3889;48.162;11.510;2022-08-11T15:44:01;2.85;;;2.00;;
7693;SDS011;3889;48.162;11.510;2022-08-11T15:47:09;3.28;;;1.80;;
7693;SDS011;3889;48.162;11.510;2022-08-11T15:49:40;5.55;;;2.72;;
7693;SDS011;3889;48.162;11.510;2022-08-11T15:52:34;3.78;;;2.20;;
7693;SDS011;3889;48.162;11.510;2022-08-11T15:55:14;3.90;;;2.15;;
7693;SDS011;3889;48.162;11.510;2022-08-11T15:57:44;5.85;;;2.22;;
7693;SDS011;3889;48.162;11.510;2022-08-11T16:00:33;3.83;;;1.97;;
7693;SDS011;3889;48.162;11.510;2022-08-11T16:03:30;5.28;;;1.95;;
7693;SDS011;3889;48.162;11.510;2022-08-11T16:06:34;3.22;;;2.00;;
7693;SDS011;3889;48.162;11.510;2022-08-11T16:09:09;3.60;;;2.13;;
7693;SDS011;3889;48.162;11.510;2022-08-11T16:11:44;2.35;;;1.67;;
7693;SDS011;3889;48.162;11.510;2022-08-11T16:14:14;2.75;;;2.10;;
7693;SDS011;3889;48.162;11.510;2022-08-11T16:17:02;4.25;;;1.90;;
7693;SDS011;3889;48.162;11.510;2022-08-11T16:19:32;3.08;;;1.90;;
7693;SDS011;3889;48.162;11.510;2022-08-11T16:22:06;3.03;;;2.30;;
7693;SDS011;3889;48.162;11.510;2022-08-11T16:24:36;4.40;;;2.00;;
7693;SDS011;3889;48.162;11.510;2022-08-11T16:27:30;3.10;;;1.67;;
7693;SDS011;3889;48.162;11.510;2022-08-11T16:30:01;4.57;;;2.28;;
7693;SDS011;3889;48.162;11.510;2022-08-11T16:32:31;2.95;;;1.92;;
7693;SDS011;3889;48.162;11.510;2022-08-11T16:35:01;3.70;;;1.98;;
7693;SDS011;3889;48.162;11.510;2022-08-11T16:37:51;3.15;;;1.90;;
7693;SDS011;3889;48.162;11.510;2022-08-11T16:40:38;4.22;;;2.15;;
7693;SDS011;3889;48.162;11.510;2022-08-11T16:43:10;4.25;;;1.90;;
7693;SDS011;3889;48.162;11.510;2022-08-11T16:45:58;2.40;;;1.98;;
7693;SDS011;3889;48.162;11.510;2022-08-11T16:48:47;2.75;;;1.98;;
7693;SDS011;3889;48.162;11.510;2022-08-11T16:51:18;4.85;;;2.42;;
7693;SDS011;3889;48.162;11.510;2022-08-11T16:53:48;4.03;;;2.03;;
7693;SDS011;3889;48.162;11.510;2022-08-11T16:56:32;2.53;;;2.00;;
7693;SDS011;3889;48.162;11.510;2022-08-11T16:59:04;3.38;;;2.13;;
7693;SDS011;3889;48.162;11.510;2022-08-11T17:01:43;3.17;;;1.90;;
7693;SDS011;3889;48.162;11.510;2022-08-11T17:04:18;3.40;;;2.03;;
7693;SDS011;3889;48.162;11.510;2022-08-11T17:07:08;3.70;;;1.90;;
7693;SDS011;3889;48.162;11.510;2022-08-11T17:10:12;2.25;;;2.00;;